sensor_id;sensor_type;location;lat;lon;timestamp;pressure;altitude;pressure_sealevel;temperature;humidity
52032;BME280;38044;45.148;39.604;2023-04-20T00:02:15;100367.53;;;14.01;86.61
52032;BME280;38044;45.148;39.604;2023-04-20T00:04:41;100199.41;;;13.17;86.78
52032;BME280;38044;45.148;39.604;2023-04-20T00:07:07;100300.25;;;13.99;86.87
52032;BME280;38044;45.148;39.604;2023-04-20T00:09:33;100285.19;;;13.98;86.54
52032;BME280;38044;45.148;39.604;2023-04-20T00:11:59;100284.69;;;13.96;86.76
52032;BME280;38044;45.148;39.604;2023-04-20T00:14:26;100285.16;;;14.07;87.10
52032;BME280;38044;45.148;39.604;2023-04-20T00:16:52;100176.53;;;13.23;86.86
52032;BME280;38044;45.148;39.604;2023-04-20T00:19:17;100305.69;;;13.82;86.92
52032;BME280;38044;45.148;39.604;2023-04-20T00:21:43;100366.88;;;14.04;87.03
52032;BME280;38044;45.148;39.604;2023-04-20T00:24:09;100355.44;;;13.81;87.14
52032;BME280;38044;45.148;39.604;2023-04-20T00:26:35;100398.38;;;14.00;87.47
52032;BME280;38044;45.148;39.604;2023-04-20T00:29:01;100353.38;;;13.95;87.29
52032;BME280;38044;45.148;39.604;2023-04-20T00:31:27;100359.41;;;14.09;86.65
52032;BME280;38044;45.148;39.604;2023-04-20T00:33:52;100328.56;;;13.93;86.93
52032;BME280;38044;45.148;39.604;2023-04-20T00:36:18;100313.97;;;13.94;87.15
52032;BME280;38044;45.148;39.604;2023-04-20T00:38:44;100287.75;;;13.86;86.87
52032;BME280;38044;45.148;39.604;2023-04-20T00:41:10;100284.06;;;13.82;87.19
52032;BME280;38044;45.148;39.604;2023-04-20T00:43:36;100179.03;;;12.93;88.03
52032;BME280;38044;45.148;39.604;2023-04-20T00:46:02;100316.97;;;13.66;89.04
52032;BME280;38044;45.148;39.604;2023-04-20T00:48:28;100259.88;;;13.24;89.33
52032;BME280;38044;45.148;39.604;2023-04-20T00:50:54;100310.00;;;13.57;89.38
52032;BME280;38044;45.148;39.604;2023-04-20T00:53:20;100277.38;;;13.36;89.79
52032;BME280;38044;45.148;39.604;2023-04-20T00:55:46;100159.63;;;12.56;89.81
52032;BME280;38044;45.148;39.604;2023-04-20T00:58:12;100282.97;;;13.39;90.01
52032;BME280;38044;45.148;39.604;2023-04-20T01:00:38;100258.94;;;13.20;90.26
52032;BME280;38044;45.148;39.604;2023-04-20T01:03:06;100136.13;;;12.39;90.38
52032;BME280;38044;45.148;39.604;2023-04-20T01:05:32;100274.69;;;13.36;90.13
52032;BME280;38044;45.148;39.604;2023-04-20T01:07:58;100274.88;;;13.31;89.74
52032;BME280;38044;45.148;39.604;2023-04-20T01:10:24;100274.88;;;13.31;89.86
52032;BME280;38044;45.148;39.604;2023-04-20T01:12:50;100254.44;;;13.07;89.85
52032;BME280;38044;45.148;39.604;2023-04-20T01:15:16;100275.63;;;13.22;89.94
52032;BME280;38044;45.148;39.604;2023-04-20T01:17:42;100273.53;;;13.19;89.82
52032;BME280;38044;45.148;39.604;2023-04-20T01:20:09;100190.09;;;12.57;89.53
52032;BME280;38044;45.148;39.604;2023-04-20T01:22:47;100306.44;;;13.30;89.73
52032;BME280;38044;45.148;39.604;2023-04-20T01:25:13;100319.00;;;13.35;89.48
52032;BME280;38044;45.148;39.604;2023-04-20T01:27:40;100323.44;;;13.31;89.96
52032;BME280;38044;45.148;39.604;2023-04-20T01:30:07;100318.78;;;13.22;90.03
52032;BME280;38044;45.148;39.604;2023-04-20T01:32:33;100332.44;;;13.17;89.99
52032;BME280;38044;45.148;39.604;2023-04-20T01:34:59;100291.34;;;12.72;89.65
52032;BME280;38044;45.148;39.604;2023-04-20T01:37:25;100419.38;;;13.37;89.66
52032;BME280;38044;45.148;39.604;2023-04-20T01:39:51;100369.41;;;13.08;89.80
52032;BME280;38044;45.148;39.604;2023-04-20T01:42:17;100383.00;;;13.34;90.22
52032;BME280;38044;45.148;39.604;2023-04-20T01:44:43;100372.22;;;13.43;90.47
52032;BME280;38044;45.148;39.604;2023-04-20T01:47:09;100360.63;;;13.42;90.46
52032;BME280;38044;45.148;39.604;2023-04-20T01:49:35;100272.47;;;12.80;90.02
52032;BME280;38044;45.148;39.604;2023-04-20T01:52:01;100296.31;;;12.96;89.71
52032;BME280;38044;45.148;39.604;2023-04-20T01:54:26;100346.09;;;13.21;89.48
52032;BME280;38044;45.148;39.604;2023-04-20T01:56:52;100289.91;;;12.74;89.49
52032;BME280;38044;45.148;39.604;2023-04-20T01:59:18;100300.59;;;12.88;89.36
52032;BME280;38044;45.148;39.604;2023-04-20T02:01:44;100320.25;;;13.28;89.19
52032;BME280;38044;45.148;39.604;2023-04-20T02:04:10;100336.13;;;13.30;89.49
52032;BME280;38044;45.148;39.604;2023-04-20T02:06:35;100275.44;;;13.19;89.63
52032;BME280;38044;45.148;39.604;2023-04-20T02:09:01;100253.16;;;13.04;90.40
52032;BME280;38044;45.148;39.604;2023-04-20T02:11:27;100101.94;;;12.09;90.70
52032;BME280;38044;45.148;39.604;2023-04-20T02:13:53;100119.47;;;11.98;91.09
52032;BME280;38044;45.148;39.604;2023-04-20T02:16:19;100233.78;;;12.76;91.54
52032;BME280;38044;45.148;39.604;2023-04-20T02:18:46;100075.00;;;11.78;91.40
52032;BME280;38044;45.148;39.604;2023-04-20T02:21:12;100156.09;;;12.47;91.71
52032;BME280;38044;45.148;39.604;2023-04-20T02:23:38;100154.38;;;12.43;91.88
52032;BME280;38044;45.148;39.604;2023-04-20T02:26:04;100061.72;;;11.81;91.69
52032;BME280;38044;45.148;39.604;2023-04-20T02:28:29;100184.06;;;12.60;91.72
52032;BME280;38044;45.148;39.604;2023-04-20T02:30:55;100135.00;;;12.40;91.53
52032;BME280;38044;45.148;39.604;2023-04-20T02:33:21;100170.72;;;12.55;91.55
52032;BME280;38044;45.148;39.604;2023-04-20T02:35:47;100145.13;;;12.35;91.31
52032;BME280;38044;45.148;39.604;2023-04-20T02:38:13;100194.34;;;12.58;91.33
52032;BME280;38044;45.148;39.604;2023-04-20T02:40:40;100053.28;;;11.74;91.06
52032;BME280;38044;45.148;39.604;2023-04-20T02:43:06;100167.25;;;12.54;90.90
52032;BME280;38044;45.148;39.604;2023-04-20T02:45:31;100028.56;;;11.72;91.04
52032;BME280;38044;45.148;39.604;2023-04-20T02:48:34;100177.72;;;12.65;90.90
52032;BME280;38044;45.148;39.604;2023-04-20T02:51:00;100050.13;;;11.72;90.72
52032;BME280;38044;45.148;39.604;2023-04-20T02:53:26;100195.63;;;12.60;90.93
52032;BME280;38044;45.148;39.604;2023-04-20T02:55:52;100199.13;;;12.61;90.71
52032;BME280;38044;45.148;39.604;2023-04-20T02:58:17;100066.00;;;11.82;90.54
52032;BME280;38044;45.148;39.604;2023-04-20T03:00:43;100182.47;;;12.59;90.65
52032;BME280;38044;45.148;39.604;2023-04-20T03:03:10;100089.91;;;11.84;90.87
52032;BME280;38044;45.148;39.604;2023-04-20T03:05:36;100210.06;;;12.65;90.54
52032;BME280;38044;45.148;39.604;2023-04-20T03:08:02;100228.97;;;12.73;90.49
52032;BME280;38044;45.148;39.604;2023-04-20T03:10:34;100218.53;;;12.80;90.54
52032;BME280;38044;45.148;39.604;2023-04-20T03:13:00;100149.88;;;12.29;90.08
52032;BME280;38044;45.148;39.604;2023-04-20T03:15:27;100203.13;;;12.72;90.11
52032;BME280;38044;45.148;39.604;2023-04-20T03:17:53;100241.91;;;12.94;89.91
52032;BME280;38044;45.148;39.604;2023-04-20T03:20:20;100207.59;;;12.77;89.77
52032;BME280;38044;45.148;39.604;2023-04-20T03:22:46;100245.25;;;13.08;89.02
52032;BME280;38044;45.148;39.604;2023-04-20T03:25:12;100209.84;;;12.92;89.10
52032;BME280;38044;45.148;39.604;2023-04-20T03:27:37;100108.06;;;12.40;88.56
52032;BME280;38044;45.148;39.604;2023-04-20T03:30:03;100143.31;;;12.70;88.17
52032;BME280;38044;45.148;39.604;2023-04-20T03:32:29;100224.81;;;13.33;88.12
52032;BME280;38044;45.148;39.604;2023-04-20T03:34:55;100223.25;;;13.41;88.12
52032;BME280;38044;45.148;39.604;2023-04-20T03:37:21;100172.56;;;13.20;88.09
52032;BME280;38044;45.148;39.604;2023-04-20T03:39:49;100206.25;;;13.49;87.25
52032;BME280;38044;45.148;39.604;2023-04-20T03:42:15;100171.94;;;13.41;86.84
52032;BME280;38044;45.148;39.604;2023-04-20T03:44:41;100195.09;;;13.77;86.22
52032;BME280;38044;45.148;39.604;2023-04-20T03:47:06;100204.78;;;13.86;85.37
52032;BME280;38044;45.148;39.604;2023-04-20T03:49:33;100211.25;;;14.03;84.42
52032;BME280;38044;45.148;39.604;2023-04-20T03:51:59;100078.25;;;13.33;85.23
52032;BME280;38044;45.148;39.604;2023-04-20T03:54:25;100230.50;;;14.48;85.32
52032;BME280;38044;45.148;39.604;2023-04-20T03:56:51;100117.72;;;13.72;84.53
52032;BME280;38044;45.148;39.604;2023-04-20T03:59:17;100222.09;;;14.41;83.92
52032;BME280;38044;45.148;39.604;2023-04-20T04:01:43;100248.47;;;14.53;83.44
52032;BME280;38044;45.148;39.604;2023-04-20T04:04:08;100259.91;;;14.50;83.38
52032;BME280;38044;45.148;39.604;2023-04-20T04:06:34;100242.41;;;14.47;83.69
52032;BME280;38044;45.148;39.604;2023-04-20T04:09:00;100236.09;;;14.43;83.30
52032;BME280;38044;45.148;39.604;2023-04-20T04:11:26;100277.53;;;14.64;82.78
52032;BME280;38044;45.148;39.604;2023-04-20T04:13:55;100245.78;;;14.44;82.40
52032;BME280;38044;45.148;39.604;2023-04-20T04:16:20;100266.59;;;14.61;82.91
52032;BME280;38044;45.148;39.604;2023-04-20T04:18:46;100236.25;;;14.38;82.62
52032;BME280;38044;45.148;39.604;2023-04-20T04:21:12;100277.41;;;14.61;82.02
52032;BME280;38044;45.148;39.604;2023-04-20T04:23:38;100268.03;;;14.58;82.16
52032;BME280;38044;45.148;39.604;2023-04-20T04:26:04;100257.84;;;14.55;81.51
52032;BME280;38044;45.148;39.604;2023-04-20T04:28:30;100257.16;;;14.67;81.87
52032;BME280;38044;45.148;39.604;2023-04-20T04:30:56;100113.41;;;13.80;81.44
52032;BME280;38044;45.148;39.604;2023-04-20T04:33:22;100230.59;;;14.69;81.27
52032;BME280;38044;45.148;39.604;2023-04-20T04:35:49;100233.84;;;14.83;80.84
52032;BME280;38044;45.148;39.604;2023-04-20T04:38:15;100150.22;;;14.40;80.43
52032;BME280;38044;45.148;39.604;2023-04-20T04:40:41;100242.28;;;15.12;80.51
52032;BME280;38044;45.148;39.604;2023-04-20T04:43:10;100248.09;;;15.43;79.97
52032;BME280;38044;45.148;39.604;2023-04-20T04:45:39;100219.56;;;15.46;78.94
52032;BME280;38044;45.148;39.604;2023-04-20T04:48:06;100114.59;;;14.89;78.36
52032;BME280;38044;45.148;39.604;2023-04-20T04:50:34;100217.97;;;15.66;77.91
52032;BME280;38044;45.148;39.604;2023-04-20T04:53:01;100259.66;;;16.07;77.51
52032;BME280;38044;45.148;39.604;2023-04-20T04:55:29;100234.81;;;16.05;77.22
52032;BME280;38044;45.148;39.604;2023-04-20T04:57:55;100269.13;;;16.46;76.72
52032;BME280;38044;45.148;39.604;2023-04-20T05:00:22;100246.75;;;16.49;75.97
52032;BME280;38044;45.148;39.604;2023-04-20T05:02:49;100113.13;;;15.79;75.83
52032;BME280;38044;45.148;39.604;2023-04-20T05:05:21;100225.38;;;16.72;74.97
52032;BME280;38044;45.148;39.604;2023-04-20T05:07:47;100249.81;;;17.09;75.28
52032;BME280;38044;45.148;39.604;2023-04-20T05:10:12;100260.63;;;17.33;73.87
52032;BME280;38044;45.148;39.604;2023-04-20T05:12:38;100232.63;;;17.17;73.82
52032;BME280;38044;45.148;39.604;2023-04-20T05:15:05;100129.75;;;16.63;73.86
52032;BME280;38044;45.148;39.604;2023-04-20T05:17:31;100280.88;;;17.89;72.97
52032;BME280;38044;45.148;39.604;2023-04-20T05:19:57;100280.94;;;18.20;71.52
52032;BME280;38044;45.148;39.604;2023-04-20T05:22:23;100218.06;;;17.94;70.96
52032;BME280;38044;45.148;39.604;2023-04-20T05:24:48;100291.16;;;18.11;70.25
52032;BME280;38044;45.148;39.604;2023-04-20T05:27:14;100125.66;;;16.69;70.16
52032;BME280;38044;45.148;39.604;2023-04-20T05:29:40;100178.78;;;16.70;70.38
52032;BME280;38044;45.148;39.604;2023-04-20T05:32:06;100271.75;;;17.16;71.63
52032;BME280;38044;45.148;39.604;2023-04-20T05:34:32;100290.88;;;17.32;72.25
52032;BME280;38044;45.148;39.604;2023-04-20T05:36:58;100306.94;;;17.25;73.13
52032;BME280;38044;45.148;39.604;2023-04-20T05:39:24;100303.34;;;17.08;73.38
52032;BME280;38044;45.148;39.604;2023-04-20T05:41:50;100287.28;;;16.79;73.76
52032;BME280;38044;45.148;39.604;2023-04-20T05:44:16;100317.94;;;16.92;74.51
52032;BME280;38044;45.148;39.604;2023-04-20T05:46:42;100318.06;;;16.83;75.05
52032;BME280;38044;45.148;39.604;2023-04-20T05:49:08;100321.28;;;16.64;75.98
52032;BME280;38044;45.148;39.604;2023-04-20T05:51:34;100314.88;;;16.35;76.05
52032;BME280;38044;45.148;39.604;2023-04-20T05:54:00;100311.66;;;16.09;76.51
52032;BME280;38044;45.148;39.604;2023-04-20T05:56:26;100305.47;;;15.87;77.59
52032;BME280;38044;45.148;39.604;2023-04-20T05:58:53;100286.88;;;15.56;79.00
52032;BME280;38044;45.148;39.604;2023-04-20T06:01:19;100258.41;;;15.29;79.25
52032;BME280;38044;45.148;39.604;2023-04-20T06:03:45;100258.47;;;15.20;79.88
52032;BME280;38044;45.148;39.604;2023-04-20T06:06:13;100299.16;;;15.32;80.40
52032;BME280;38044;45.148;39.604;2023-04-20T06:08:39;100296.84;;;15.22;80.44
52032;BME280;38044;45.148;39.604;2023-04-20T06:11:05;100300.25;;;15.10;80.80
52032;BME280;38044;45.148;39.604;2023-04-20T06:13:31;100311.88;;;15.11;80.71
52032;BME280;38044;45.148;39.604;2023-04-20T06:15:56;100184.78;;;14.26;80.89
52032;BME280;38044;45.148;39.604;2023-04-20T06:18:22;100332.28;;;15.08;81.42
52032;BME280;38044;45.148;39.604;2023-04-20T06:20:48;100298.63;;;14.89;81.76
52032;BME280;38044;45.148;39.604;2023-04-20T06:23:14;100186.13;;;14.11;81.99
52032;BME280;38044;45.148;39.604;2023-04-20T06:25:40;100344.84;;;15.04;82.68
52032;BME280;38044;45.148;39.604;2023-04-20T06:28:07;100235.97;;;14.22;83.31
52032;BME280;38044;45.148;39.604;2023-04-20T06:30:33;100297.47;;;14.60;83.78
52032;BME280;38044;45.148;39.604;2023-04-20T06:33:00;100186.97;;;13.85;84.48
52032;BME280;38044;45.148;39.604;2023-04-20T06:35:26;100323.06;;;14.62;85.20
52032;BME280;38044;45.148;39.604;2023-04-20T06:37:52;100187.16;;;13.71;85.83
52032;BME280;38044;45.148;39.604;2023-04-20T06:40:18;100319.75;;;14.57;86.31
52032;BME280;38044;45.148;39.604;2023-04-20T06:42:44;100267.94;;;14.29;86.65
52032;BME280;38044;45.148;39.604;2023-04-20T06:45:10;100204.13;;;13.89;87.69
52032;BME280;38044;45.148;39.604;2023-04-20T06:47:36;100287.47;;;14.52;88.04
52032;BME280;38044;45.148;39.604;2023-04-20T06:50:04;100259.47;;;14.39;88.49
52032;BME280;38044;45.148;39.604;2023-04-20T06:52:37;100303.94;;;14.68;89.13
52032;BME280;38044;45.148;39.604;2023-04-20T06:55:04;100273.13;;;14.51;89.19
52032;BME280;38044;45.148;39.604;2023-04-20T06:57:30;100214.69;;;14.20;88.50
52032;BME280;38044;45.148;39.604;2023-04-20T06:59:55;100294.25;;;14.67;88.68
52032;BME280;38044;45.148;39.604;2023-04-20T07:02:23;100283.78;;;14.65;88.99
52032;BME280;38044;45.148;39.604;2023-04-20T07:04:49;100271.34;;;14.64;89.29
52032;BME280;38044;45.148;39.604;2023-04-20T07:07:15;100252.44;;;14.55;88.83
52032;BME280;38044;45.148;39.604;2023-04-20T07:09:41;100272.91;;;14.74;88.93
52032;BME280;38044;45.148;39.604;2023-04-20T07:12:07;100258.06;;;14.80;89.42
52032;BME280;38044;45.148;39.604;2023-04-20T07:14:33;100235.38;;;14.63;88.80
52032;BME280;38044;45.148;39.604;2023-04-20T07:16:59;100270.94;;;14.83;88.90
52032;BME280;38044;45.148;39.604;2023-04-20T07:19:25;100122.75;;;13.91;88.86
52032;BME280;38044;45.148;39.604;2023-04-20T07:21:51;100227.13;;;14.60;89.02
52032;BME280;38044;45.148;39.604;2023-04-20T07:24:17;100219.19;;;14.55;89.69
52032;BME280;38044;45.148;39.604;2023-04-20T07:26:43;100267.59;;;14.86;90.28
52032;BME280;38044;45.148;39.604;2023-04-20T07:29:08;100280.72;;;14.96;90.40
52032;BME280;38044;45.148;39.604;2023-04-20T07:31:34;100264.75;;;14.82;89.91
52032;BME280;38044;45.148;39.604;2023-04-20T07:34:00;100156.78;;;14.22;89.60
52032;BME280;38044;45.148;39.604;2023-04-20T07:36:26;100299.56;;;15.14;89.76
52032;BME280;38044;45.148;39.604;2023-04-20T07:38:52;100294.50;;;15.12;89.66
52032;BME280;38044;45.148;39.604;2023-04-20T07:41:18;100307.91;;;15.08;89.67
52032;BME280;38044;45.148;39.604;2023-04-20T07:43:47;100220.47;;;14.49;89.64
52032;BME280;38044;45.148;39.604;2023-04-20T07:46:20;100296.34;;;14.91;89.96
52032;BME280;38044;45.148;39.604;2023-04-20T07:48:46;100300.72;;;14.83;89.96
52032;BME280;38044;45.148;39.604;2023-04-20T07:51:12;100305.16;;;14.79;90.04
52032;BME280;38044;45.148;39.604;2023-04-20T07:53:38;100302.66;;;14.74;90.11
52032;BME280;38044;45.148;39.604;2023-04-20T07:56:04;100226.44;;;14.25;90.13
52032;BME280;38044;45.148;39.604;2023-04-20T07:58:30;100300.94;;;14.69;90.04
52032;BME280;38044;45.148;39.604;2023-04-20T08:00:56;100286.03;;;14.54;89.78
52032;BME280;38044;45.148;39.604;2023-04-20T08:03:22;100293.34;;;14.45;89.65
52032;BME280;38044;45.148;39.604;2023-04-20T08:05:48;100289.03;;;14.44;89.56
52032;BME280;38044;45.148;39.604;2023-04-20T08:08:14;100283.63;;;14.44;89.52
52032;BME280;38044;45.148;39.604;2023-04-20T08:10:42;100306.03;;;14.62;89.69
52032;BME280;38044;45.148;39.604;2023-04-20T08:13:08;100307.78;;;14.67;89.65
52032;BME280;38044;45.148;39.604;2023-04-20T08:15:33;100316.69;;;14.67;89.59
52032;BME280;38044;45.148;39.604;2023-04-20T08:18:00;100316.84;;;14.62;89.76
52032;BME280;38044;45.148;39.604;2023-04-20T08:20:25;100314.16;;;14.62;89.91
52032;BME280;38044;45.148;39.604;2023-04-20T08:22:52;100313.06;;;14.63;89.79
52032;BME280;38044;45.148;39.604;2023-04-20T08:25:18;100327.06;;;14.65;89.60
52032;BME280;38044;45.148;39.604;2023-04-20T08:27:44;100329.31;;;14.54;89.62
52032;BME280;38044;45.148;39.604;2023-04-20T08:30:10;100329.13;;;14.59;89.75
52032;BME280;38044;45.148;39.604;2023-04-20T08:32:36;100294.16;;;14.37;89.34
52032;BME280;38044;45.148;39.604;2023-04-20T08:35:02;100320.03;;;14.64;89.61
52032;BME280;38044;45.148;39.604;2023-04-20T08:37:28;100307.25;;;14.73;89.54
52032;BME280;38044;45.148;39.604;2023-04-20T08:39:54;100299.75;;;14.79;89.56
52032;BME280;38044;45.148;39.604;2023-04-20T08:42:20;100280.38;;;14.77;89.21
52032;BME280;38044;45.148;39.604;2023-04-20T08:44:46;100190.19;;;14.26;88.77
52032;BME280;38044;45.148;39.604;2023-04-20T08:47:12;100313.88;;;14.93;88.70
52032;BME280;38044;45.148;39.604;2023-04-20T08:49:38;100309.28;;;14.85;88.42
52032;BME280;38044;45.148;39.604;2023-04-20T08:52:04;100312.31;;;14.83;88.30
52032;BME280;38044;45.148;39.604;2023-04-20T08:54:31;100312.97;;;14.80;87.64
52032;BME280;38044;45.148;39.604;2023-04-20T08:56:57;100354.09;;;15.03;87.53
52032;BME280;38044;45.148;39.604;2023-04-20T08:59:24;100329.56;;;15.08;88.28
52032;BME280;38044;45.148;39.604;2023-04-20T09:01:50;100326.84;;;15.08;87.74
52032;BME280;38044;45.148;39.604;2023-04-20T09:04:24;100323.19;;;15.04;87.28
52032;BME280;38044;45.148;39.604;2023-04-20T09:06:54;100263.91;;;14.52;87.98
52032;BME280;38044;45.148;39.604;2023-04-20T09:09:22;100323.81;;;14.80;88.37
52032;BME280;38044;45.148;39.604;2023-04-20T09:12:04;100302.03;;;14.77;88.43
52032;BME280;38044;45.148;39.604;2023-04-20T09:14:51;100327.78;;;15.13;88.96
52032;BME280;38044;45.148;39.604;2023-04-20T09:17:30;100323.75;;;15.19;88.44
52032;BME280;38044;45.148;39.604;2023-04-20T09:19:56;100322.72;;;15.11;87.60
52032;BME280;38044;45.148;39.604;2023-04-20T09:22:29;100311.63;;;15.25;87.79
52032;BME280;38044;45.148;39.604;2023-04-20T09:24:55;100302.75;;;15.16;87.21
52032;BME280;38044;45.148;39.604;2023-04-20T09:27:21;100132.84;;;14.11;87.10
52032;BME280;38044;45.148;39.604;2023-04-20T09:30:00;100279.66;;;15.39;87.58
52032;BME280;38044;45.148;39.604;2023-04-20T09:32:28;100275.63;;;15.24;86.93
52032;BME280;38044;45.148;39.604;2023-04-20T09:34:54;100168.59;;;14.55;86.60
52032;BME280;38044;45.148;39.604;2023-04-20T09:37:20;100310.41;;;15.43;86.72
52032;BME280;38044;45.148;39.604;2023-04-20T09:39:47;100299.75;;;15.38;86.09
52032;BME280;38044;45.148;39.604;2023-04-20T09:42:15;100190.47;;;14.71;86.01
52032;BME280;38044;45.148;39.604;2023-04-20T09:44:41;100322.25;;;15.60;86.10
52032;BME280;38044;45.148;39.604;2023-04-20T09:47:08;100260.94;;;15.04;85.52
52032;BME280;38044;45.148;39.604;2023-04-20T09:49:34;100334.25;;;15.50;85.89
52032;BME280;38044;45.148;39.604;2023-04-20T09:52:03;100343.75;;;15.56;85.88
52032;BME280;38044;45.148;39.604;2023-04-20T09:54:30;100336.63;;;15.51;85.62
52032;BME280;38044;45.148;39.604;2023-04-20T09:56:59;100343.09;;;15.59;86.02
52032;BME280;38044;45.148;39.604;2023-04-20T09:59:26;100229.69;;;14.86;85.56
52032;BME280;38044;45.148;39.604;2023-04-20T10:01:52;100353.91;;;15.68;86.25
52032;BME280;38044;45.148;39.604;2023-04-20T10:04:18;100352.84;;;15.81;86.27
52032;BME280;38044;45.148;39.604;2023-04-20T10:06:54;100244.88;;;15.29;84.87
52032;BME280;38044;45.148;39.604;2023-04-20T10:09:23;100243.19;;;15.16;84.80
52032;BME280;38044;45.148;39.604;2023-04-20T10:11:51;100339.31;;;15.81;84.97
52032;BME280;38044;45.148;39.604;2023-04-20T10:14:20;100348.56;;;15.80;84.80
52032;BME280;38044;45.148;39.604;2023-04-20T10:16:59;100325.56;;;15.65;84.88
52032;BME280;38044;45.148;39.604;2023-04-20T10:19:35;100330.16;;;15.65;84.74
52032;BME280;38044;45.148;39.604;2023-04-20T10:22:02;100364.94;;;15.63;84.40
52032;BME280;38044;45.148;39.604;2023-04-20T10:24:29;100316.66;;;15.35;85.01
52032;BME280;38044;45.148;39.604;2023-04-20T10:26:55;100334.66;;;15.61;85.62
52032;BME280;38044;45.148;39.604;2023-04-20T10:29:27;100315.50;;;15.66;85.25
52032;BME280;38044;45.148;39.604;2023-04-20T10:31:54;100303.19;;;15.47;84.50
52032;BME280;38044;45.148;39.604;2023-04-20T10:34:33;100311.41;;;15.81;85.78
52032;BME280;38044;45.148;39.604;2023-04-20T10:37:09;100318.41;;;16.03;85.13
52032;BME280;38044;45.148;39.604;2023-04-20T10:39:36;100265.09;;;15.73;84.45
52032;BME280;38044;45.148;39.604;2023-04-20T10:42:02;100284.44;;;15.84;83.97
52032;BME280;38044;45.148;39.604;2023-04-20T10:44:29;100308.09;;;15.96;83.75
52032;BME280;38044;45.148;39.604;2023-04-20T10:46:55;100297.44;;;15.91;83.98
52032;BME280;38044;45.148;39.604;2023-04-20T10:49:28;100284.91;;;15.86;83.47
52032;BME280;38044;45.148;39.604;2023-04-20T10:51:55;100291.03;;;15.95;83.66
52032;BME280;38044;45.148;39.604;2023-04-20T10:54:21;100156.50;;;15.03;83.57
52032;BME280;38044;45.148;39.604;2023-04-20T10:56:49;100277.06;;;15.72;84.07
52032;BME280;38044;45.148;39.604;2023-04-20T10:59:23;100261.16;;;15.71;83.77
52032;BME280;38044;45.148;39.604;2023-04-20T11:01:50;100311.78;;;16.12;83.50
52032;BME280;38044;45.148;39.604;2023-04-20T11:04:16;100308.88;;;15.96;84.12
52032;BME280;38044;45.148;39.604;2023-04-20T11:06:44;100303.84;;;16.07;83.92
52032;BME280;38044;45.148;39.604;2023-04-20T11:09:24;100334.50;;;16.20;83.62
52032;BME280;38044;45.148;39.604;2023-04-20T11:12:06;100327.91;;;16.09;83.88
52032;BME280;38044;45.148;39.604;2023-04-20T11:14:35;100351.63;;;15.99;83.44
52032;BME280;38044;45.148;39.604;2023-04-20T11:17:07;100334.88;;;15.76;83.43
52032;BME280;38044;45.148;39.604;2023-04-20T11:19:34;100234.06;;;14.99;83.35
52032;BME280;38044;45.148;39.604;2023-04-20T11:22:04;100246.19;;;14.93;84.01
52032;BME280;38044;45.148;39.604;2023-04-20T11:24:32;100226.56;;;14.75;83.99
52032;BME280;38044;45.148;39.604;2023-04-20T11:26:58;100329.34;;;15.43;84.12
52032;BME280;38044;45.148;39.604;2023-04-20T11:29:37;100336.66;;;15.72;85.39
52032;BME280;38044;45.148;39.604;2023-04-20T11:32:05;100297.13;;;15.50;84.47
52032;BME280;38044;45.148;39.604;2023-04-20T11:34:32;100351.47;;;15.96;84.46
52032;BME280;38044;45.148;39.604;2023-04-20T11:37:09;100220.63;;;15.32;84.19
52032;BME280;38044;45.148;39.604;2023-04-20T11:39:37;100311.41;;;15.81;83.29
52032;BME280;38044;45.148;39.604;2023-04-20T11:42:04;100316.97;;;15.84;83.38
52032;BME280;38044;45.148;39.604;2023-04-20T11:44:30;100176.59;;;15.02;82.96
52032;BME280;38044;45.148;39.604;2023-04-20T11:46:56;100303.34;;;15.93;82.91
52032;BME280;38044;45.148;39.604;2023-04-20T11:49:23;100334.97;;;16.22;81.97
52032;BME280;38044;45.148;39.604;2023-04-20T11:51:50;100340.63;;;16.29;82.36
52032;BME280;38044;45.148;39.604;2023-04-20T11:54:16;100334.28;;;16.25;82.19
52032;BME280;38044;45.148;39.604;2023-04-20T11:56:46;100328.28;;;16.19;82.21
52032;BME280;38044;45.148;39.604;2023-04-20T11:59:12;100335.78;;;16.02;82.25
52032;BME280;38044;45.148;39.604;2023-04-20T12:01:44;100322.22;;;16.02;82.76
52032;BME280;38044;45.148;39.604;2023-04-20T12:04:10;100281.06;;;15.87;83.32
52032;BME280;38044;45.148;39.604;2023-04-20T12:06:36;100187.59;;;15.39;83.21
52032;BME280;38044;45.148;39.604;2023-04-20T12:09:02;100316.78;;;16.23;82.86
52032;BME280;38044;45.148;39.604;2023-04-20T12:11:30;100272.53;;;15.97;82.10
52032;BME280;38044;45.148;39.604;2023-04-20T12:13:56;100187.38;;;15.44;81.68
52032;BME280;38044;45.148;39.604;2023-04-20T12:16:22;100291.06;;;16.08;81.67
52032;BME280;38044;45.148;39.604;2023-04-20T12:18:48;100322.06;;;16.19;81.97
52032;BME280;38044;45.148;39.604;2023-04-20T12:21:14;100315.34;;;16.04;82.30
52032;BME280;38044;45.148;39.604;2023-04-20T12:23:40;100191.31;;;15.35;82.80
52032;BME280;38044;45.148;39.604;2023-04-20T12:26:07;100165.28;;;15.21;82.55
52032;BME280;38044;45.148;39.604;2023-04-20T12:28:32;100174.78;;;15.27;82.56
52032;BME280;38044;45.148;39.604;2023-04-20T12:30:58;100302.59;;;16.05;82.66
52032;BME280;38044;45.148;39.604;2023-04-20T12:33:24;100277.25;;;15.88;82.61
52032;BME280;38044;45.148;39.604;2023-04-20T12:35:50;100272.88;;;15.75;82.89
52032;BME280;38044;45.148;39.604;2023-04-20T12:38:16;100263.22;;;15.86;83.38
52032;BME280;38044;45.148;39.604;2023-04-20T12:40:42;100289.59;;;15.98;83.18